KLXY

Mexia-Limestone Co Airport

Mexia, Texas, USA
METAR KLXY 191815Z AUTO 15005KT 10SM CLR 33/22 A2997 RMK AO2 T03320215
Observed Flight Rules
Sep-19 @ 18:15 UTC (31 minutes ago) Visual Flight Rules
Wind Visibility Clouds
150° at 5 knots 10 miles
  • Clear skies
Temperatures Readings
Current 33°C / 91°F
Dewpoint 22°C / 72°F
Humidity 52%
Altimeter 29.97" Hg
Pressure 1015 hPa
Elevation 166
METAR KLXY 191815Z AUTO 15005KT 10SM CLR 33/22 A2997 RMK AO2 T03320215
Observed Flight Rules
Sep-19 @ 18:15 UTC
(31 minutes ago)
VFR
Wind Visibility
150° at 5 knots 10 miles
Clouds
  • Clear skies
Temperature Dewpoint
33°C / 91°F 22°C / 72°F
Humidity Altimeter Pressure
52% 29.97" Hg 1015 hPa